Time;durP1;ratioP1;P1;durP2;ratioP2;P2;SDS_P1;SDS_P2;PMS_P1;PMS_P2;Temp;Humidity;BMP_temperature;BMP_pressure;BME280_temperature;BME280_humidity;BME280_pressure;Samples;Min_cycle;Max_cycle;Signal;HPM_P1;HPM_P2
2023/09/24 00:01:27;;;;;;;2.50;1.10;;;;;;;;;;10382925;22;20371;-71
2023/09/24 00:05:27;;;;;;;3.08;1.33;;;;;;;;;;10385564;22;20017;-70
2023/09/24 00:09:27;;;;;;;1.38;0.90;;;;;;;;;;10385006;22;20003;-71
2023/09/24 00:13:28;;;;;;;2.00;1.13;;;;;;;;;;10385600;22;20007;-71
2023/09/24 00:17:28;;;;;;;2.35;1.10;;;;;;;;;;10380254;22;20019;-71
2023/09/24 00:21:28;;;;;;;2.73;1.27;;;;;;;;;;10384214;22;20022;-71
2023/09/24 00:25:28;;;;;;;2.58;1.00;;;;;;;;;;10385827;22;20006;-70
2023/09/24 00:29:29;;;;;;;1.75;0.98;;;;;;;;;;10379190;22;20042;-71
2023/09/24 00:33:29;;;;;;;3.60;1.08;;;;;;;;;;10378917;22;20011;-71
2023/09/24 00:37:29;;;;;;;1.88;1.00;;;;;;;;;;10384095;22;20089;-71
2023/09/24 00:41:30;;;;;;;2.45;0.90;;;;;;;;;;10386187;22;20021;-71
2023/09/24 00:45:30;;;;;;;3.90;1.17;;;;;;;;;;10386289;22;20014;-71
2023/09/24 00:49:32;;;;;;;1.40;0.80;;;;;;;;;;10388865;22;20021;-71
2023/09/24 00:53:33;;;;;;;1.92;1.10;;;;;;;;;;10390277;22;20748;-71
2023/09/24 00:57:34;;;;;;;2.80;1.10;;;;;;;;;;10387004;22;19999;-71
2023/09/24 01:01:34;;;;;;;3.15;1.00;;;;;;;;;;10387989;22;20017;-71
2023/09/24 01:05:35;;;;;;;2.08;1.00;;;;;;;;;;10390841;22;20038;-71
2023/09/24 01:09:35;;;;;;;2.70;1.10;;;;;;;;;;10387209;22;20381;-71
2023/09/24 01:13:45;;;;;;;2.13;1.10;;;;;;;;;;10387150;22;20014;-70
2023/09/24 01:17:45;;;;;;;4.30;1.00;;;;;;;;;;10387606;22;20122;-70
2023/09/24 01:21:47;;;;;;;1.60;0.87;;;;;;;;;;10385363;22;20086;-71
2023/09/24 01:25:47;;;;;;;1.77;1.00;;;;;;;;;;10389404;22;20015;-71
2023/09/24 01:29:48;;;;;;;2.08;1.20;;;;;;;;;;10384875;22;20057;-70
2023/09/24 01:33:48;;;;;;;2.53;1.10;;;;;;;;;;10383437;22;20034;-71
2023/09/24 01:37:48;;;;;;;2.83;0.95;;;;;;;;;;10387217;22;20224;-71
2023/09/24 01:41:49;;;;;;;1.85;0.95;;;;;;;;;;10386955;22;20011;-71
2023/09/24 01:45:49;;;;;;;2.42;0.95;;;;;;;;;;10386381;22;20019;-71
2023/09/24 01:49:49;;;;;;;3.55;0.98;;;;;;;;;;10371445;22;20011;-71
2023/09/24 01:53:50;;;;;;;1.50;1.00;;;;;;;;;;10385046;22;20010;-71
2023/09/24 01:57:51;;;;;;;1.38;0.70;;;;;;;;;;10388930;22;20007;-71
2023/09/24 02:01:52;;;;;;;0.85;0.75;;;;;;;;;;10383457;22;20011;-71
2023/09/24 02:05:52;;;;;;;3.92;1.00;;;;;;;;;;10387900;22;20074;-71
2023/09/24 02:09:52;;;;;;;3.33;0.87;;;;;;;;;;10387822;22;20130;-71
2023/09/24 02:13:53;;;;;;;2.08;0.90;;;;;;;;;;10385099;22;20288;-71
2023/09/24 02:17:53;;;;;;;4.28;1.10;;;;;;;;;;10385120;22;20098;-71
2023/09/24 02:21:53;;;;;;;2.43;0.90;;;;;;;;;;10385002;22;20000;-71
2023/09/24 02:25:55;;;;;;;1.23;1.08;;;;;;;;;;10388407;22;20057;-71
2023/09/24 02:29:55;;;;;;;1.27;0.82;;;;;;;;;;10385141;22;20078;-71
2023/09/24 02:33:55;;;;;;;1.52;0.93;;;;;;;;;;10382068;22;20042;-70
2023/09/24 02:37:56;;;;;;;0.93;0.80;;;;;;;;;;10387163;22;20005;-71
2023/09/24 02:41:56;;;;;;;1.50;1.00;;;;;;;;;;10384789;22;20007;-72
2023/09/24 02:45:57;;;;;;;3.03;0.82;;;;;;;;;;10384605;22;20126;-71
2023/09/24 02:49:58;;;;;;;0.70;0.70;;;;;;;;;;10388835;22;20528;-71
2023/09/24 02:53:59;;;;;;;1.00;0.60;;;;;;;;;;10386206;22;19999;-71
2023/09/24 02:57:59;;;;;;;2.78;1.00;;;;;;;;;;10387570;22;20437;-70
2023/09/24 03:02:00;;;;;;;1.90;1.00;;;;;;;;;;10380276;22;20015;-71
2023/09/24 03:06:00;;;;;;;2.95;1.00;;;;;;;;;;10386862;22;20401;-71
2023/09/24 03:10:00;;;;;;;3.15;1.10;;;;;;;;;;10384251;22;20849;-71
2023/09/24 03:14:01;;;;;;;2.80;1.00;;;;;;;;;;10384680;22;20050;-71
2023/09/24 03:18:01;;;;;;;1.02;0.95;;;;;;;;;;10381080;22;20019;-70
2023/09/24 03:22:02;;;;;;;1.20;0.90;;;;;;;;;;10386430;22;20031;-71
2023/09/24 03:26:03;;;;;;;2.17;1.05;;;;;;;;;;10385945;22;20575;-71
2023/09/24 03:30:05;;;;;;;1.00;0.73;;;;;;;;;;10384494;22;20018;-71
2023/09/24 03:34:05;;;;;;;1.25;0.80;;;;;;;;;;10384281;22;20447;-71
2023/09/24 03:38:05;;;;;;;2.17;0.80;;;;;;;;;;10387584;22;20003;-71
2023/09/24 03:42:06;;;;;;;0.88;0.70;;;;;;;;;;10379513;22;20031;-71
2023/09/24 03:46:09;;;;;;;0.70;0.70;;;;;;;;;;10383464;22;20022;-70
2023/09/24 03:50:11;;;;;;;1.20;1.00;;;;;;;;;;10381979;22;20007;-71
2023/09/24 03:54:12;;;;;;;2.53;1.00;;;;;;;;;;10380921;22;20003;-71
2023/09/24 03:58:12;;;;;;;0.80;0.80;;;;;;;;;;10382579;22;20023;-70
2023/09/24 04:02:14;;;;;;;0.80;0.80;;;;;;;;;;10377520;22;20675;-71
2023/09/24 04:06:16;;;;;;;2.92;1.00;;;;;;;;;;10384060;22;20007;-70
2023/09/24 04:10:19;;;;;;;1.50;0.82;;;;;;;;;;10382343;22;20007;-73
2023/09/24 04:14:20;;;;;;;0.77;0.77;;;;;;;;;;10381611;22;20037;-70
2023/09/24 04:18:20;;;;;;;0.77;0.77;;;;;;;;;;10378113;22;20130;-71
2023/09/24 04:22:22;;;;;;;1.52;0.80;;;;;;;;;;10378201;22;20098;-72
2023/09/24 04:26:22;;;;;;;1.73;0.70;;;;;;;;;;10382359;22;20022;-70
2023/09/24 04:30:24;;;;;;;2.50;1.10;;;;;;;;;;10379922;22;20011;-71
2023/09/24 04:34:25;;;;;;;3.00;0.80;;;;;;;;;;10381205;22;20003;-70
2023/09/24 04:38:25;;;;;;;0.70;0.70;;;;;;;;;;10379771;22;20054;-71
2023/09/24 04:42:25;;;;;;;1.73;0.80;;;;;;;;;;10372402;22;20011;-70
2023/09/24 04:46:25;;;;;;;2.20;0.90;;;;;;;;;;10378732;22;20026;-71
2023/09/24 04:50:26;;;;;;;1.70;0.93;;;;;;;;;;10379334;22;20120;-71
2023/09/24 04:54:26;;;;;;;1.23;0.77;;;;;;;;;;10379686;22;20027;-71
2023/09/24 04:58:26;;;;;;;1.88;0.90;;;;;;;;;;10380330;22;20006;-71
2023/09/24 05:02:26;;;;;;;1.85;0.77;;;;;;;;;;10347116;22;20012;-70
2023/09/24 05:06:27;;;;;;;3.77;0.90;;;;;;;;;;10383008;22;20006;-71
2023/09/24 05:10:27;;;;;;;0.63;0.63;;;;;;;;;;10380571;22;20284;-70
2023/09/24 05:14:27;;;;;;;2.10;0.90;;;;;;;;;;10385218;22;20010;-71
2023/09/24 05:18:28;;;;;;;1.92;0.90;;;;;;;;;;10384056;22;20381;-71
2023/09/24 05:22:28;;;;;;;1.33;0.80;;;;;;;;;;10378314;22;20041;-71
2023/09/24 05:26:28;;;;;;;1.40;0.80;;;;;;;;;;10383106;22;20813;-72
2023/09/24 05:30:28;;;;;;;1.98;0.80;;;;;;;;;;10382943;22;19999;-70
2023/09/24 05:34:29;;;;;;;2.05;0.80;;;;;;;;;;10381352;22;20074;-72
2023/09/24 05:38:29;;;;;;;1.83;0.63;;;;;;;;;;10383795;22;20065;-72
2023/09/24 05:42:29;;;;;;;1.42;0.75;;;;;;;;;;10385220;22;20708;-71
2023/09/24 05:46:30;;;;;;;1.58;0.80;;;;;;;;;;10381208;22;20925;-72
2023/09/24 05:50:30;;;;;;;1.00;0.93;;;;;;;;;;10381842;22;20106;-72
2023/09/24 05:54:30;;;;;;;2.55;0.80;;;;;;;;;;10380185;22;20007;-72
2023/09/24 05:58:31;;;;;;;1.65;0.85;;;;;;;;;;10385307;22;20000;-72
2023/09/24 06:02:31;;;;;;;0.75;0.75;;;;;;;;;;10380563;22;20199;-72
2023/09/24 06:06:31;;;;;;;3.23;1.00;;;;;;;;;;10385209;22;20082;-72
2023/09/24 06:10:32;;;;;;;0.70;0.65;;;;;;;;;;10381802;22;20221;-71
2023/09/24 06:14:32;;;;;;;1.27;0.80;;;;;;;;;;10382622;22;20003;-71
2023/09/24 06:18:32;;;;;;;1.05;0.95;;;;;;;;;;10378203;22;20094;-72
2023/09/24 06:22:33;;;;;;;1.05;0.85;;;;;;;;;;10381781;22;20425;-70
2023/09/24 06:26:35;;;;;;;0.90;0.90;;;;;;;;;;10380867;22;20049;-72
2023/09/24 06:30:36;;;;;;;0.70;0.70;;;;;;;;;;10382511;22;20641;-70
2023/09/24 06:34:37;;;;;;;1.40;0.90;;;;;;;;;;10378057;22;20007;-70
2023/09/24 06:38:38;;;;;;;1.30;1.00;;;;;;;;;;10379989;22;20000;-71
2023/09/24 06:42:38;;;;;;;4.18;1.23;;;;;;;;;;10381007;22;19995;-71
2023/09/24 06:46:39;;;;;;;1.80;1.05;;;;;;;;;;10380689;22;20056;-71
2023/09/24 06:50:39;;;;;;;2.55;1.17;;;;;;;;;;10381577;22;19999;-72
2023/09/24 06:54:39;;;;;;;5.75;1.00;;;;;;;;;;10383146;22;20124;-72
2023/09/24 06:58:39;;;;;;;1.40;0.85;;;;;;;;;;10379630;22;20066;-72
2023/09/24 07:02:39;;;;;;;1.50;0.90;;;;;;;;;;10382158;22;20015;-72
2023/09/24 07:06:40;;;;;;;1.25;1.00;;;;;;;;;;10381409;22;20010;-72
2023/09/24 07:10:41;;;;;;;1.10;1.00;;;;;;;;;;10383105;22;19999;-71
2023/09/24 07:14:42;;;;;;;2.55;1.10;;;;;;;;;;10382247;22;20389;-72
2023/09/24 07:18:43;;;;;;;4.35;1.13;;;;;;;;;;10380143;22;20410;-72
2023/09/24 07:22:43;;;;;;;3.95;1.40;;;;;;;;;;10380953;22;20338;-72
2023/09/24 07:26:44;;;;;;;2.03;1.20;;;;;;;;;;10384127;22;20000;-72
2023/09/24 07:30:44;;;;;;;2.13;1.40;;;;;;;;;;10379862;22;20006;-72
2023/09/24 07:34:47;;;;;;;4.68;1.23;;;;;;;;;;10382963;22;20003;-72
2023/09/24 07:38:50;;;;;;;2.55;1.13;;;;;;;;;;10385436;22;20061;-72
2023/09/24 07:42:51;;;;;;;1.77;1.10;;;;;;;;;;10382614;22;20011;-72
2023/09/24 07:46:51;;;;;;;1.23;1.10;;;;;;;;;;10377854;22;20114;-71
2023/09/24 07:50:54;;;;;;;1.60;1.13;;;;;;;;;;10373820;22;20320;-72
2023/09/24 07:54:54;;;;;;;3.00;1.00;;;;;;;;;;10377641;22;19999;-72
2023/09/24 07:58:56;;;;;;;2.83;1.50;;;;;;;;;;10378415;22;19999;-72
2023/09/24 08:02:56;;;;;;;1.83;1.10;;;;;;;;;;10371723;22;20089;-72
2023/09/24 08:06:56;;;;;;;2.58;1.20;;;;;;;;;;10377606;22;19999;-71
2023/09/24 08:10:57;;;;;;;1.80;1.20;;;;;;;;;;10375867;22;20006;-72
2023/09/24 08:14:57;;;;;;;3.00;1.20;;;;;;;;;;10375560;22;20030;-72
2023/09/24 08:18:57;;;;;;;2.72;2.08;;;;;;;;;;10373891;22;20023;-72
2023/09/24 08:22:58;;;;;;;1.95;1.33;;;;;;;;;;10377476;22;20011;-72
2023/09/24 08:26:58;;;;;;;1.33;0.93;;;;;;;;;;10374993;22;20121;-72
2023/09/24 08:30:58;;;;;;;1.50;1.20;;;;;;;;;;10370228;22;20019;-71
2023/09/24 08:34:58;;;;;;;1.67;1.05;;;;;;;;;;10377225;22;20011;-72
2023/09/24 08:38:59;;;;;;;3.25;1.23;;;;;;;;;;10379707;22;20011;-72
2023/09/24 08:42:59;;;;;;;2.07;1.03;;;;;;;;;;10381546;22;20683;-72
2023/09/24 08:46:59;;;;;;;2.87;1.03;;;;;;;;;;10380295;22;20023;-72
2023/09/24 08:51:01;;;;;;;1.40;1.00;;;;;;;;;;10381522;22;20679;-72
2023/09/24 08:55:02;;;;;;;1.60;0.80;;;;;;;;;;10383529;22;20675;-72
2023/09/24 08:59:02;;;;;;;1.43;1.20;;;;;;;;;;10381335;22;20064;-72
2023/09/24 09:03:06;;;;;;;1.95;1.02;;;;;;;;;;10382699;22;20011;-72
2023/09/24 09:07:12;;;;;;;3.00;1.23;;;;;;;;;;10385330;22;20057;-72
2023/09/24 09:11:12;;;;;;;2.72;0.98;;;;;;;;;;10383956;22;20011;-71
2023/09/24 09:15:16;;;;;;;3.42;1.10;;;;;;;;;;10384255;22;20027;-72
2023/09/24 09:19:16;;;;;;;2.08;1.10;;;;;;;;;;10381689;22;20065;-70
2023/09/24 09:23:35;;;;;;;2.15;1.10;;;;;;;;;;10384790;22;20010;-70
2023/09/24 09:27:46;;;;;;;5.15;1.40;;;;;;;;;;10383578;22;20010;-69
2023/09/24 09:31:48;;;;;;;2.25;1.23;;;;;;;;;;10383529;22;20088;-70
2023/09/24 09:35:48;;;;;;;3.10;1.27;;;;;;;;;;10386778;22;20466;-70
2023/09/24 09:39:48;;;;;;;2.50;1.35;;;;;;;;;;10382957;22;20022;-70
2023/09/24 09:43:50;;;;;;;3.57;1.50;;;;;;;;;;10383693;22;20015;-69
2023/09/24 09:48:03;;;;;;;2.58;1.40;;;;;;;;;;10381340;22;20022;-69
2023/09/24 09:52:03;;;;;;;3.20;1.30;;;;;;;;;;10382719;22;19995;-70
2023/09/24 09:56:05;;;;;;;5.05;1.45;;;;;;;;;;10386255;22;20045;-70
2023/09/24 10:00:06;;;;;;;3.47;1.10;;;;;;;;;;10382473;22;20071;-70
2023/09/24 10:04:08;;;;;;;4.10;1.30;;;;;;;;;;10377919;22;20011;-69
2023/09/24 10:08:27;;;;;;;3.03;1.42;;;;;;;;;;10382242;22;20006;-69
2023/09/24 10:12:36;;;;;;;2.63;1.30;;;;;;;;;;10384979;22;20126;-70
2023/09/24 10:16:41;;;;;;;2.30;1.20;;;;;;;;;;10384359;22;20082;-69
2023/09/24 10:20:55;;;;;;;1.75;1.10;;;;;;;;;;10381429;22;20007;-71
2023/09/24 10:24:56;;;;;;;2.67;1.25;;;;;;;;;;10380849;22;20007;-70
2023/09/24 10:28:56;;;;;;;2.92;1.58;;;;;;;;;;10386777;22;19995;-70
2023/09/24 10:32:57;;;;;;;1.67;1.10;;;;;;;;;;10373307;22;20011;-70
2023/09/24 10:37:12;;;;;;;3.40;1.38;;;;;;;;;;10377691;22;20114;-70
2023/09/24 10:41:13;;;;;;;3.08;1.10;;;;;;;;;;10375742;22;20399;-70
2023/09/24 10:45:13;;;;;;;3.58;1.30;;;;;;;;;;10376417;22;20730;-71
2023/09/24 10:49:21;;;;;;;3.13;1.33;;;;;;;;;;10373587;22;20003;-70
2023/09/24 10:53:21;;;;;;;3.15;1.33;;;;;;;;;;10377956;22;20004;-70
2023/09/24 10:57:25;;;;;;;2.83;1.27;;;;;;;;;;10376044;22;20105;-70
2023/09/24 11:01:29;;;;;;;2.72;1.35;;;;;;;;;;10373796;22;20015;-70
2023/09/24 11:05:33;;;;;;;3.33;1.40;;;;;;;;;;10377074;22;20015;-70
2023/09/24 11:09:33;;;;;;;2.90;1.40;;;;;;;;;;10373344;22;20815;-70
2023/09/24 11:13:33;;;;;;;4.20;1.40;;;;;;;;;;10373216;22;20002;-71
2023/09/24 11:17:33;;;;;;;2.05;1.20;;;;;;;;;;10373262;22;20010;-70
2023/09/24 11:21:33;;;;;;;1.33;1.20;;;;;;;;;;10375735;22;20103;-70
2023/09/24 11:25:34;;;;;;;2.40;1.17;;;;;;;;;;10377043;22;20362;-71
2023/09/24 11:29:35;;;;;;;1.88;1.10;;;;;;;;;;10372878;22;20801;-70
2023/09/24 11:33:35;;;;;;;2.05;1.23;;;;;;;;;;10377381;22;20017;-71
2023/09/24 11:37:46;;;;;;;2.67;1.30;;;;;;;;;;10375067;22;20693;-70
2023/09/24 11:41:46;;;;;;;1.60;0.90;;;;;;;;;;10375621;22;19992;-70
2023/09/24 11:45:48;;;;;;;2.15;1.00;;;;;;;;;;10375667;22;20054;-71
2023/09/24 11:49:49;;;;;;;1.25;1.00;;;;;;;;;;10375323;22;19999;-70
2023/09/24 11:53:49;;;;;;;2.20;1.10;;;;;;;;;;10375202;22;20538;-70
2023/09/24 11:57:49;;;;;;;2.35;0.98;;;;;;;;;;10374356;22;19999;-71
2023/09/24 12:01:50;;;;;;;2.67;1.17;;;;;;;;;;10377279;22;20476;-70
2023/09/24 12:05:50;;;;;;;2.35;1.20;;;;;;;;;;10377130;22;19999;-70
2023/09/24 12:09:50;;;;;;;1.52;1.20;;;;;;;;;;10372814;22;20041;-70
2023/09/24 12:13:52;;;;;;;2.67;1.08;;;;;;;;;;10376313;22;20014;-70
2023/09/24 12:17:55;;;;;;;2.53;1.10;;;;;;;;;;10376675;22;20102;-71
2023/09/24 12:21:55;;;;;;;1.33;0.98;;;;;;;;;;10374647;22;20088;-70
2023/09/24 12:25:55;;;;;;;2.33;1.10;;;;;;;;;;10376673;22;19999;-70
2023/09/24 12:29:55;;;;;;;3.53;1.48;;;;;;;;;;10376247;22;20061;-70
2023/09/24 12:33:56;;;;;;;1.73;1.27;;;;;;;;;;10377796;22;20019;-70
2023/09/24 12:37:56;;;;;;;3.03;1.50;;;;;;;;;;10377912;22;20006;-70
2023/09/24 12:41:56;;;;;;;3.47;1.33;;;;;;;;;;10383221;22;20069;-70
2023/09/24 12:45:57;;;;;;;2.22;1.60;;;;;;;;;;10385901;22;20019;-69
2023/09/24 12:49:58;;;;;;;2.70;1.85;;;;;;;;;;10386323;22;20098;-69
2023/09/24 12:53:58;;;;;;;5.07;1.70;;;;;;;;;;10385461;22;20062;-69
2023/09/24 12:57:58;;;;;;;2.75;1.60;;;;;;;;;;10380580;22;20003;-70
2023/09/24 13:01:58;;;;;;;3.80;1.50;;;;;;;;;;10375964;22;20131;-68
2023/09/24 13:05:59;;;;;;;2.45;1.83;;;;;;;;;;10379716;22;20007;-70
2023/09/24 13:09:59;;;;;;;2.47;1.70;;;;;;;;;;10382490;22;20023;-70
2023/09/24 13:13:59;;;;;;;3.95;2.03;;;;;;;;;;10379318;22;20006;-70
2023/09/24 13:17:59;;;;;;;3.53;1.85;;;;;;;;;;10381313;22;20198;-70
2023/09/24 13:22:00;;;;;;;7.45;2.88;;;;;;;;;;10377107;22;20011;-70
2023/09/24 13:26:00;;;;;;;3.45;2.70;;;;;;;;;;10380335;22;20072;-70
2023/09/24 13:30:00;;;;;;;4.60;3.07;;;;;;;;;;10379597;22;20524;-70
2023/09/24 13:34:03;;;;;;;3.30;2.22;;;;;;;;;;10380829;22;20558;-70
2023/09/24 13:38:04;;;;;;;2.72;1.60;;;;;;;;;;10385463;22;20049;-70
2023/09/24 13:42:05;;;;;;;2.20;1.70;;;;;;;;;;10383442;22;20006;-71
2023/09/24 13:46:05;;;;;;;2.50;1.50;;;;;;;;;;10380558;22;20019;-70
2023/09/24 13:50:09;;;;;;;2.67;1.60;;;;;;;;;;10383052;22;20003;-70
2023/09/24 13:54:09;;;;;;;3.75;1.50;;;;;;;;;;10383461;22;20724;-71
2023/09/24 13:58:09;;;;;;;3.00;1.30;;;;;;;;;;10382921;22;20094;-71
2023/09/24 14:02:10;;;;;;;1.90;1.37;;;;;;;;;;10376626;22;20118;-70
2023/09/24 14:06:10;;;;;;;2.80;1.27;;;;;;;;;;10384038;22;19999;-70
2023/09/24 14:14:29;;;;;;;1.67;1.13;;;;;;;;;;10381859;22;20080;-70
2023/09/24 14:18:30;;;;;;;1.30;1.20;;;;;;;;;;10380050;22;20318;-70
2023/09/24 14:22:30;;;;;;;1.58;1.20;;;;;;;;;;10383572;22;20014;-70
2023/09/24 14:26:30;;;;;;;1.40;1.25;;;;;;;;;;10390116;22;20022;-70
2023/09/24 14:30:31;;;;;;;1.90;1.17;;;;;;;;;;10382521;22;20565;-70
2023/09/24 14:34:32;;;;;;;1.75;1.20;;;;;;;;;;10384009;22;20576;-71
2023/09/24 14:38:32;;;;;;;1.80;1.30;;;;;;;;;;10382241;22;20111;-70
2023/09/24 14:42:32;;;;;;;1.93;1.33;;;;;;;;;;10384356;22;20011;-72
2023/09/24 14:46:38;;;;;;;2.75;2.15;;;;;;;;;;10384289;22;20245;-73
2023/09/24 14:50:39;;;;;;;3.28;1.40;;;;;;;;;;10383626;22;20683;-73
2023/09/24 14:54:41;;;;;;;2.75;1.35;;;;;;;;;;10393710;22;19996;-73
2023/09/24 14:58:41;;;;;;;1.30;1.20;;;;;;;;;;10394195;22;19999;-74
2023/09/24 15:02:41;;;;;;;1.65;1.20;;;;;;;;;;10394121;22;20011;-73
2023/09/24 15:06:41;;;;;;;1.30;1.20;;;;;;;;;;10392886;22;21130;-73
2023/09/24 15:10:42;;;;;;;1.40;1.30;;;;;;;;;;10392688;22;20221;-73
2023/09/24 15:14:43;;;;;;;1.58;1.20;;;;;;;;;;10400382;22;20245;-72
2023/09/24 15:18:43;;;;;;;2.03;1.20;;;;;;;;;;10401621;22;20014;-72
2023/09/24 15:22:43;;;;;;;1.35;1.23;;;;;;;;;;10394865;22;20960;-72
2023/09/24 15:26:43;;;;;;;1.77;1.00;;;;;;;;;;10402354;22;20034;-72
2023/09/24 15:30:46;;;;;;;1.50;1.13;;;;;;;;;;10396010;22;20007;-73
2023/09/24 15:34:47;;;;;;;1.67;1.20;;;;;;;;;;10395622;22;20007;-72
2023/09/24 15:38:47;;;;;;;1.90;1.20;;;;;;;;;;10399100;22;20010;-72
2023/09/24 15:42:47;;;;;;;2.55;1.50;;;;;;;;;;10403621;22;20057;-73
2023/09/24 15:46:48;;;;;;;2.65;2.08;;;;;;;;;;10400477;22;20734;-73
2023/09/24 15:50:49;;;;;;;2.92;2.20;;;;;;;;;;10396299;22;20003;-72
2023/09/24 15:54:49;;;;;;;2.70;1.77;;;;;;;;;;10396912;22;20061;-71
2023/09/24 15:58:49;;;;;;;4.93;1.98;;;;;;;;;;10405474;22;20002;-73
2023/09/24 16:02:51;;;;;;;1.45;1.30;;;;;;;;;;10416936;22;20012;-73
2023/09/24 16:06:51;;;;;;;1.88;1.45;;;;;;;;;;10420427;22;20065;-73
2023/09/24 16:10:52;;;;;;;1.55;1.35;;;;;;;;;;10421690;22;20030;-73
2023/09/24 16:14:52;;;;;;;2.50;1.60;;;;;;;;;;10417519;22;20543;-73
2023/09/24 16:18:59;;;;;;;1.60;1.40;;;;;;;;;;10424415;22;20015;-73
2023/09/24 16:22:59;;;;;;;2.40;1.70;;;;;;;;;;10430685;22;20024;-74
2023/09/24 16:27:01;;;;;;;2.13;1.20;;;;;;;;;;10427664;22;20036;-74
2023/09/24 16:31:04;;;;;;;1.88;1.30;;;;;;;;;;10429486;22;20074;-73
2023/09/24 16:35:04;;;;;;;;;;;;;;;;;;10418622;22;20003;-74
2023/09/24 16:39:05;;;;;;;3.13;1.30;;;;;;;;;;10414502;22;19898;-73
2023/09/24 16:43:05;;;;;;;3.15;1.42;;;;;;;;;;10418507;22;20017;-73
2023/09/24 16:47:06;;;;;;;3.53;1.60;;;;;;;;;;10433009;22;20029;-72
2023/09/24 16:51:06;;;;;;;2.67;1.50;;;;;;;;;;10421458;22;20018;-73
2023/09/24 16:55:06;;;;;;;1.70;1.33;;;;;;;;;;10418857;22;20011;-73
2023/09/24 16:59:08;;;;;;;1.33;1.20;;;;;;;;;;10436523;22;19984;-73
2023/09/24 17:03:08;;;;;;;1.70;1.23;;;;;;;;;;10441606;22;20030;-73
2023/09/24 17:07:08;;;;;;;3.33;1.40;;;;;;;;;;10443846;22;20071;-72
2023/09/24 17:11:09;;;;;;;2.05;1.20;;;;;;;;;;10424205;22;20228;-73
2023/09/24 17:15:09;;;;;;;1.40;1.30;;;;;;;;;;10419408;22;20074;-73
2023/09/24 17:19:12;;;;;;;1.35;1.17;;;;;;;;;;10416861;22;20022;-73
2023/09/24 17:23:13;;;;;;;2.85;1.40;;;;;;;;;;10397936;22;20672;-71
2023/09/24 17:27:13;;;;;;;2.10;1.77;;;;;;;;;;10425712;22;19983;-73
2023/09/24 17:31:14;;;;;;;1.70;1.38;;;;;;;;;;10419356;22;20015;-72
2023/09/24 17:35:14;;;;;;;2.07;1.50;;;;;;;;;;10420017;22;20007;-72
2023/09/24 17:39:14;;;;;;;1.40;1.30;;;;;;;;;;10392374;22;20088;-73
2023/09/24 17:43:15;;;;;;;1.58;1.30;;;;;;;;;;10406994;22;20319;-73
2023/09/24 17:47:15;;;;;;;1.02;1.02;;;;;;;;;;10408917;22;20031;-73
2023/09/24 17:51:16;;;;;;;1.50;1.40;;;;;;;;;;10408359;22;20065;-73
2023/09/24 17:55:16;;;;;;;2.75;1.27;;;;;;;;;;10406367;22;19999;-73
2023/09/24 17:59:17;;;;;;;2.35;1.08;;;;;;;;;;10391310;22;20149;-72
2023/09/24 18:03:19;;;;;;;2.95;1.30;;;;;;;;;;10399409;22;20011;-73
2023/09/24 18:07:20;;;;;;;1.80;1.40;;;;;;;;;;10390944;22;20027;-72
2023/09/24 18:11:20;;;;;;;2.97;1.30;;;;;;;;;;10390602;22;20007;-73
2023/09/24 18:15:22;;;;;;;2.85;1.30;;;;;;;;;;10395646;22;20077;-73
2023/09/24 18:19:22;;;;;;;1.50;1.08;;;;;;;;;;10391185;22;20153;-71
2023/09/24 18:23:23;;;;;;;8.93;1.43;;;;;;;;;;10386827;22;20011;-71
2023/09/24 18:27:23;;;;;;;1.80;1.27;;;;;;;;;;10383495;22;20007;-71
2023/09/24 18:31:23;;;;;;;1.58;1.23;;;;;;;;;;10380769;22;20019;-71
2023/09/24 18:35:24;;;;;;;2.35;1.30;;;;;;;;;;10380330;22;20117;-71
2023/09/24 18:39:25;;;;;;;3.00;1.58;;;;;;;;;;10381508;22;19999;-71
2023/09/24 18:43:26;;;;;;;1.75;1.00;;;;;;;;;;10384752;22;20374;-71
2023/09/24 18:47:26;;;;;;;1.65;1.20;;;;;;;;;;10383003;22;20639;-73
2023/09/24 18:51:26;;;;;;;3.72;1.30;;;;;;;;;;10382378;22;20007;-72
2023/09/24 18:55:26;;;;;;;2.53;1.30;;;;;;;;;;10383519;22;20004;-72
2023/09/24 18:59:27;;;;;;;2.58;1.30;;;;;;;;;;10386559;22;20003;-72
2023/09/24 19:03:27;;;;;;;1.58;1.08;;;;;;;;;;10375406;22;20015;-72
2023/09/24 19:07:27;;;;;;;1.67;1.23;;;;;;;;;;10389419;22;20057;-72
2023/09/24 19:11:28;;;;;;;3.70;1.53;;;;;;;;;;10387060;22;20045;-72
2023/09/24 19:15:28;;;;;;;3.03;1.60;;;;;;;;;;10383472;22;20011;-73
2023/09/24 19:19:28;;;;;;;2.00;1.27;;;;;;;;;;10389839;22;20222;-73
2023/09/24 19:23:32;;;;;;;3.57;1.43;;;;;;;;;;10392584;22;20046;-72
2023/09/24 19:27:32;;;;;;;5.00;1.40;;;;;;;;;;10382345;22;20003;-71
2023/09/24 19:31:33;;;;;;;5.00;1.50;;;;;;;;;;10379178;22;20077;-71
2023/09/24 19:35:33;;;;;;;2.15;1.45;;;;;;;;;;10381967;22;20015;-71
2023/09/24 19:39:35;;;;;;;3.65;1.60;;;;;;;;;;10381017;22;20007;-70
2023/09/24 19:43:36;;;;;;;2.97;1.60;;;;;;;;;;10378106;22;19999;-71
2023/09/24 19:47:36;;;;;;;4.15;1.85;;;;;;;;;;10380175;22;20733;-71
2023/09/24 19:51:36;;;;;;;5.03;1.77;;;;;;;;;;10380184;22;20009;-70
2023/09/24 19:55:36;;;;;;;3.03;1.60;;;;;;;;;;10379189;22;20626;-71
2023/09/24 19:59:37;;;;;;;4.77;1.80;;;;;;;;;;10378445;22;19999;-71
2023/09/24 20:03:37;;;;;;;3.03;1.63;;;;;;;;;;10377313;22;20520;-71
2023/09/24 20:07:39;;;;;;;3.67;1.65;;;;;;;;;;10382365;22;20006;-71
2023/09/24 20:11:39;;;;;;;2.92;2.00;;;;;;;;;;10384236;22;20006;-70
2023/09/24 20:15:39;;;;;;;2.70;1.50;;;;;;;;;;10393636;22;20384;-71
2023/09/24 20:19:39;;;;;;;3.85;1.75;;;;;;;;;;10392200;22;20378;-70
2023/09/24 20:23:40;;;;;;;5.55;1.75;;;;;;;;;;10389605;22;20076;-70
2023/09/24 20:27:40;;;;;;;3.13;1.48;;;;;;;;;;10391342;22;20007;-72
2023/09/24 20:31:41;;;;;;;1.50;1.30;;;;;;;;;;10392117;22;20026;-72
2023/09/24 20:35:42;;;;;;;3.25;1.60;;;;;;;;;;10393800;22;20022;-72
2023/09/24 20:39:42;;;;;;;4.85;1.70;;;;;;;;;;10392592;22;20009;-71
2023/09/24 20:43:42;;;;;;;1.98;1.50;;;;;;;;;;10390799;22;20010;-71
2023/09/24 20:47:44;;;;;;;3.72;1.48;;;;;;;;;;10388632;22;20058;-72
2023/09/24 20:51:44;;;;;;;3.15;1.85;;;;;;;;;;10381437;22;20421;-72
2023/09/24 20:55:44;;;;;;;3.15;1.20;;;;;;;;;;10389650;22;20022;-72
2023/09/24 20:59:58;;;;;;;2.47;1.10;;;;;;;;;;10390858;22;20090;-71
2023/09/24 21:03:58;;;;;;;1.20;0.97;;;;;;;;;;10386118;22;20352;-72
2023/09/24 21:07:58;;;;;;;1.20;1.10;;;;;;;;;;10388077;22;20300;-71
2023/09/24 21:11:58;;;;;;;1.30;0.90;;;;;;;;;;10391664;22;20083;-72
2023/09/24 21:15:59;;;;;;;1.35;0.93;;;;;;;;;;10405822;22;20003;-71
2023/09/24 21:20:02;;;;;;;1.67;1.10;;;;;;;;;;10392349;22;20023;-72
2023/09/24 21:24:02;;;;;;;1.77;1.17;;;;;;;;;;10400191;22;20090;-71
2023/09/24 21:28:03;;;;;;;2.37;1.00;;;;;;;;;;10394488;22;20015;-72
2023/09/24 21:32:03;;;;;;;1.75;1.10;;;;;;;;;;10392711;22;20019;-71
2023/09/24 21:36:04;;;;;;;1.50;1.10;;;;;;;;;;10395949;22;20007;-71
2023/09/24 21:40:05;;;;;;;3.58;1.35;;;;;;;;;;10393748;22;20015;-71
2023/09/24 21:44:05;;;;;;;5.57;1.48;;;;;;;;;;10399986;22;20010;-71
2023/09/24 21:48:06;;;;;;;2.28;1.38;;;;;;;;;;10402865;22;20825;-71
2023/09/24 21:52:06;;;;;;;2.03;1.20;;;;;;;;;;10402717;22;19995;-71
2023/09/24 21:56:06;;;;;;;1.90;1.30;;;;;;;;;;10403446;22;20125;-71
2023/09/24 22:00:11;;;;;;;1.50;1.17;;;;;;;;;;10405377;22;19999;-72
2023/09/24 22:04:11;;;;;;;1.63;1.10;;;;;;;;;;10400932;22;20034;-72
2023/09/24 22:08:14;;;;;;;3.75;1.17;;;;;;;;;;10402894;22;19991;-71
2023/09/24 22:12:14;;;;;;;2.80;1.20;;;;;;;;;;10399622;22;20612;-72
2023/09/24 22:16:15;;;;;;;1.80;1.07;;;;;;;;;;10393949;22;20007;-71
2023/09/24 22:20:15;;;;;;;2.50;1.20;;;;;;;;;;10403521;22;20220;-71
2023/09/24 22:24:15;;;;;;;1.67;1.03;;;;;;;;;;10398733;22;20011;-73
2023/09/24 22:28:15;;;;;;;1.27;1.00;;;;;;;;;;10391544;22;20298;-71
2023/09/24 22:32:16;;;;;;;1.88;1.20;;;;;;;;;;10386413;22;20018;-71
2023/09/24 22:36:17;;;;;;;1.10;1.00;;;;;;;;;;10390268;22;19999;-71
2023/09/24 22:40:17;;;;;;;1.73;1.30;;;;;;;;;;10387275;22;20014;-71
2023/09/24 22:44:17;;;;;;;2.03;1.30;;;;;;;;;;10388059;22;20066;-71
2023/09/24 22:48:18;;;;;;;2.22;1.35;;;;;;;;;;10387447;22;20012;-71
2023/09/24 22:52:18;;;;;;;2.55;1.50;;;;;;;;;;10388418;22;20027;-72
2023/09/24 22:56:19;;;;;;;3.20;1.80;;;;;;;;;;10381919;22;20359;-71
2023/09/24 23:00:20;;;;;;;2.47;1.52;;;;;;;;;;10384505;22;20010;-72
2023/09/24 23:04:20;;;;;;;1.88;1.25;;;;;;;;;;10384973;22;20026;-72
2023/09/24 23:08:21;;;;;;;3.03;1.42;;;;;;;;;;10381375;22;20129;-71
2023/09/24 23:12:21;;;;;;;3.47;1.30;;;;;;;;;;10378980;22;20090;-72
2023/09/24 23:16:21;;;;;;;2.65;1.40;;;;;;;;;;10384950;22;20086;-72
2023/09/24 23:20:22;;;;;;;2.35;1.48;;;;;;;;;;10383818;22;20074;-71
2023/09/24 23:24:22;;;;;;;2.37;1.47;;;;;;;;;;10384161;22;20065;-72
2023/09/24 23:28:22;;;;;;;4.25;1.50;;;;;;;;;;10386455;22;20286;-72
2023/09/24 23:32:22;;;;;;;1.47;1.37;;;;;;;;;;10383560;22;20085;-72
2023/09/24 23:36:23;;;;;;;2.67;1.25;;;;;;;;;;10382426;22;19999;-71
2023/09/24 23:40:23;;;;;;;3.72;2.00;;;;;;;;;;10383507;22;20014;-71
2023/09/24 23:44:23;;;;;;;2.60;1.67;;;;;;;;;;10386136;22;20007;-72
2023/09/24 23:48:23;;;;;;;4.40;1.80;;;;;;;;;;10381044;22;20014;-71